<?xml version='1.0' encoding='UTF-8'?>
<gpx version="1.1" creator="https://www.komoot.de" xmlns="http://www.topografix.com/GPX/1/1" xmlns:xsi="http://www.w3.org/2001/XMLSchema-instance" xsi:schemaLocation="http://www.topografix.com/GPX/1/1 http://www.topografix.com/GPX/1/1/gpx.xsd">
  <metadata>
    <name>Tour des Monats September 2026</name>
    <author>
      <link href="https://www.komoot.de">
        <text>komoot</text>
        <type>text/html</type>
      </link>
    </author>
  </metadata>
  <trk>
    <name>Tour des Monats September 2026</name>
    <type>hike</type>
    <trkseg>
      <trkpt lat="51.540728" lon="10.162385">
        <ele>167.757294</ele>
        <time>2026-08-20T10:17:09.721Z</time>
      </trkpt>
      <trkpt lat="51.540717" lon="10.162415">
        <ele>167.757294</ele>
        <time>2026-08-20T10:17:11.896Z</time>
      </trkpt>
      <trkpt lat="51.540695" lon="10.162478">
        <ele>167.757294</ele>
        <time>2026-08-20T10:17:16.432Z</time>
      </trkpt>
      <trkpt lat="51.540530" lon="10.162380">
        <ele>167.757294</ele>
        <time>2026-08-20T10:17:34.040Z</time>
      </trkpt>
      <trkpt lat="51.540423" lon="10.162246">
        <ele>167.757294</ele>
        <time>2026-08-20T10:17:47.682Z</time>
      </trkpt>
      <trkpt lat="51.540003" lon="10.160260">
        <ele>167.681813</ele>
        <time>2026-08-20T10:19:58.503Z</time>
      </trkpt>
      <trkpt lat="51.539930" lon="10.159923">
        <ele>167.660430</ele>
        <time>2026-08-20T10:20:20.780Z</time>
      </trkpt>
      <trkpt lat="51.539746" lon="10.159184">
        <ele>167.612732</ele>
        <time>2026-08-20T10:21:10.495Z</time>
      </trkpt>
      <trkpt lat="51.539164" lon="10.157660">
        <ele>167.639330</ele>
        <time>2026-08-20T10:23:02.013Z</time>
      </trkpt>
      <trkpt lat="51.539039" lon="10.157228">
        <ele>167.659465</ele>
        <time>2026-08-20T10:23:31.912Z</time>
      </trkpt>
      <trkpt lat="51.538354" lon="10.153567">
        <ele>168.304847</ele>
        <time>2026-08-20T10:27:32.217Z</time>
      </trkpt>
      <trkpt lat="51.538192" lon="10.152330">
        <ele>169.521378</ele>
        <time>2026-08-20T10:28:52.957Z</time>
      </trkpt>
      <trkpt lat="51.538204" lon="10.152147">
        <ele>169.720407</ele>
        <time>2026-08-20T10:29:04.917Z</time>
      </trkpt>
      <trkpt lat="51.538413" lon="10.152505">
        <ele>170.251458</ele>
        <time>2026-08-20T10:29:37.121Z</time>
      </trkpt>
      <trkpt lat="51.538766" lon="10.152955">
        <ele>171.034840</ele>
        <time>2026-08-20T10:30:26.197Z</time>
      </trkpt>
      <trkpt lat="51.539257" lon="10.152474">
        <ele>172.799838</ele>
        <time>2026-08-20T10:31:30.164Z</time>
      </trkpt>
      <trkpt lat="51.539319" lon="10.151832">
        <ele>174.456619</ele>
        <time>2026-08-20T10:32:16.335Z</time>
      </trkpt>
      <trkpt lat="51.539326" lon="10.151694">
        <ele>174.809701</ele>
        <time>2026-08-20T10:32:26.247Z</time>
      </trkpt>
      <trkpt lat="51.539305" lon="10.151573">
        <ele>175.130050</ele>
        <time>2026-08-20T10:32:35.321Z</time>
      </trkpt>
      <trkpt lat="51.539080" lon="10.151312">
        <ele>176.267588</ele>
        <time>2026-08-20T10:33:07.582Z</time>
      </trkpt>
      <trkpt lat="51.539006" lon="10.151190">
        <ele>176.702149</ele>
        <time>2026-08-20T10:33:19.859Z</time>
      </trkpt>
      <trkpt lat="51.538946" lon="10.150975">
        <ele>177.303082</ele>
        <time>2026-08-20T10:33:36.894Z</time>
      </trkpt>
      <trkpt lat="51.538933" lon="10.149017">
        <ele>182.951867</ele>
        <time>2026-08-20T10:35:57.775Z</time>
      </trkpt>
      <trkpt lat="51.539020" lon="10.147780">
        <ele>186.729344</ele>
        <time>2026-08-20T10:37:28.774Z</time>
      </trkpt>
      <trkpt lat="51.539031" lon="10.146353">
        <ele>191.858915</ele>
        <time>2026-08-20T10:39:14.975Z</time>
      </trkpt>
      <trkpt lat="51.539045" lon="10.144629">
        <ele>198.306274</ele>
        <time>2026-08-20T10:41:25.304Z</time>
      </trkpt>
      <trkpt lat="51.539030" lon="10.144478">
        <ele>199.068432</ele>
        <time>2026-08-20T10:41:36.900Z</time>
      </trkpt>
      <trkpt lat="51.538989" lon="10.144340">
        <ele>199.885510</ele>
        <time>2026-08-20T10:41:48.532Z</time>
      </trkpt>
      <trkpt lat="51.538795" lon="10.143897">
        <ele>202.780091</ele>
        <time>2026-08-20T10:42:29.724Z</time>
      </trkpt>
      <trkpt lat="51.538536" lon="10.143307">
        <ele>206.638283</ele>
        <time>2026-08-20T10:43:26.551Z</time>
      </trkpt>
      <trkpt lat="51.538312" lon="10.142482">
        <ele>211.447669</ele>
        <time>2026-08-20T10:44:40.810Z</time>
      </trkpt>
      <trkpt lat="51.538021" lon="10.140783">
        <ele>222.336297</ele>
        <time>2026-08-20T10:47:12.492Z</time>
      </trkpt>
      <trkpt lat="51.538518" lon="10.139302">
        <ele>233.040716</ele>
        <time>2026-08-20T10:49:33.520Z</time>
      </trkpt>
      <trkpt lat="51.538879" lon="10.137994">
        <ele>239.586232</ele>
        <time>2026-08-20T10:51:26.389Z</time>
      </trkpt>
      <trkpt lat="51.539609" lon="10.136644">
        <ele>246.926878</ele>
        <time>2026-08-20T10:53:41.537Z</time>
      </trkpt>
      <trkpt lat="51.540116" lon="10.135613">
        <ele>250.337849</ele>
        <time>2026-08-20T10:55:15.925Z</time>
      </trkpt>
      <trkpt lat="51.540539" lon="10.135001">
        <ele>252.712271</ele>
        <time>2026-08-20T10:56:19.443Z</time>
      </trkpt>
      <trkpt lat="51.541591" lon="10.133602">
        <ele>255.432115</ele>
        <time>2026-08-20T10:58:47.595Z</time>
      </trkpt>
      <trkpt lat="51.541544" lon="10.133501">
        <ele>255.567685</ele>
        <time>2026-08-20T10:58:55.726Z</time>
      </trkpt>
      <trkpt lat="51.541403" lon="10.133201">
        <ele>255.971817</ele>
        <time>2026-08-20T10:59:19.895Z</time>
      </trkpt>
      <trkpt lat="51.541342" lon="10.133024">
        <ele>256.189300</ele>
        <time>2026-08-20T10:59:32.777Z</time>
      </trkpt>
      <trkpt lat="51.541289" lon="10.132705">
        <ele>256.368433</ele>
        <time>2026-08-20T10:59:53.452Z</time>
      </trkpt>
      <trkpt lat="51.540945" lon="10.132554">
        <ele>255.982733</ele>
        <time>2026-08-20T11:00:29.548Z</time>
      </trkpt>
      <trkpt lat="51.540826" lon="10.132435">
        <ele>255.831154</ele>
        <time>2026-08-20T11:00:43.959Z</time>
      </trkpt>
      <trkpt lat="51.540642" lon="10.132132">
        <ele>255.546269</ele>
        <time>2026-08-20T11:01:11.284Z</time>
      </trkpt>
      <trkpt lat="51.540550" lon="10.132112">
        <ele>255.445853</ele>
        <time>2026-08-20T11:01:21.060Z</time>
      </trkpt>
      <trkpt lat="51.540491" lon="10.132133">
        <ele>255.380492</ele>
        <time>2026-08-20T11:01:27.447Z</time>
      </trkpt>
      <trkpt lat="51.540235" lon="10.132373">
        <ele>255.059959</ele>
        <time>2026-08-20T11:01:58.460Z</time>
      </trkpt>
      <trkpt lat="51.539679" lon="10.132791">
        <ele>254.576703</ele>
        <time>2026-08-20T11:03:01.709Z</time>
      </trkpt>
      <trkpt lat="51.539521" lon="10.132839">
        <ele>254.735094</ele>
        <time>2026-08-20T11:03:18.026Z</time>
      </trkpt>
      <trkpt lat="51.539452" lon="10.132784">
        <ele>254.810957</ele>
        <time>2026-08-20T11:03:25.801Z</time>
      </trkpt>
      <trkpt lat="51.539434" lon="10.132704">
        <ele>254.863079</ele>
        <time>2026-08-20T11:03:31.111Z</time>
      </trkpt>
      <trkpt lat="51.539462" lon="10.129284">
        <ele>256.608787</ele>
        <time>2026-08-20T11:07:17.019Z</time>
      </trkpt>
      <trkpt lat="51.539496" lon="10.128252">
        <ele>256.923832</ele>
        <time>2026-08-20T11:08:23.593Z</time>
      </trkpt>
      <trkpt lat="51.539577" lon="10.121058">
        <ele>249.471637</ele>
        <time>2026-08-20T11:16:08.142Z</time>
      </trkpt>
      <trkpt lat="51.540014" lon="10.119217">
        <ele>245.730242</ele>
        <time>2026-08-20T11:18:18.861Z</time>
      </trkpt>
      <trkpt lat="51.540312" lon="10.117900">
        <ele>240.482693</ele>
        <time>2026-08-20T11:19:54.171Z</time>
      </trkpt>
      <trkpt lat="51.539415" lon="10.116378">
        <ele>230.334804</ele>
        <time>2026-08-20T11:22:24.534Z</time>
      </trkpt>
      <trkpt lat="51.539292" lon="10.116169">
        <ele>227.976971</ele>
        <time>2026-08-20T11:22:46.525Z</time>
      </trkpt>
      <trkpt lat="51.539125" lon="10.115787">
        <ele>224.150729</ele>
        <time>2026-08-20T11:23:22.857Z</time>
      </trkpt>
      <trkpt lat="51.538006" lon="10.115176">
        <ele>208.702864</ele>
        <time>2026-08-20T11:25:55.772Z</time>
      </trkpt>
      <trkpt lat="51.537512" lon="10.114849">
        <ele>202.427303</ele>
        <time>2026-08-20T11:27:05.298Z</time>
      </trkpt>
      <trkpt lat="51.536920" lon="10.114548">
        <ele>195.133678</ele>
        <time>2026-08-20T11:28:22.778Z</time>
      </trkpt>
      <trkpt lat="51.536336" lon="10.114200">
        <ele>188.415861</ele>
        <time>2026-08-20T11:29:35.141Z</time>
      </trkpt>
      <trkpt lat="51.536281" lon="10.114095">
        <ele>188.201362</ele>
        <time>2026-08-20T11:29:44.642Z</time>
      </trkpt>
      <trkpt lat="51.536249" lon="10.113964">
        <ele>187.981444</ele>
        <time>2026-08-20T11:29:54.383Z</time>
      </trkpt>
      <trkpt lat="51.536447" lon="10.113249">
        <ele>186.758474</ele>
        <time>2026-08-20T11:30:46.902Z</time>
      </trkpt>
      <trkpt lat="51.536571" lon="10.112657">
        <ele>185.782385</ele>
        <time>2026-08-20T11:31:27.026Z</time>
      </trkpt>
      <trkpt lat="51.536608" lon="10.112430">
        <ele>185.415704</ele>
        <time>2026-08-20T11:31:41.736Z</time>
      </trkpt>
      <trkpt lat="51.536360" lon="10.112458">
        <ele>184.791162</ele>
        <time>2026-08-20T11:32:06.993Z</time>
      </trkpt>
      <trkpt lat="51.535624" lon="10.112445">
        <ele>184.197295</ele>
        <time>2026-08-20T11:33:22.325Z</time>
      </trkpt>
      <trkpt lat="51.535604" lon="10.112491">
        <ele>184.208045</ele>
        <time>2026-08-20T11:33:25.876Z</time>
      </trkpt>
      <trkpt lat="51.534989" lon="10.113884">
        <ele>184.535256</ele>
        <time>2026-08-20T11:35:13.946Z</time>
      </trkpt>
      <trkpt lat="51.534528" lon="10.115098">
        <ele>184.520975</ele>
        <time>2026-08-20T11:36:43.204Z</time>
      </trkpt>
      <trkpt lat="51.534440" lon="10.115244">
        <ele>184.502239</ele>
        <time>2026-08-20T11:36:55.958Z</time>
      </trkpt>
      <trkpt lat="51.534052" lon="10.115592">
        <ele>184.436411</ele>
        <time>2026-08-20T11:37:40.672Z</time>
      </trkpt>
      <trkpt lat="51.534024" lon="10.115660">
        <ele>184.428895</ele>
        <time>2026-08-20T11:37:45.802Z</time>
      </trkpt>
      <trkpt lat="51.533301" lon="10.117364">
        <ele>183.890828</ele>
        <time>2026-08-20T11:39:54.369Z</time>
      </trkpt>
      <trkpt lat="51.533278" lon="10.117420">
        <ele>183.864869</ele>
        <time>2026-08-20T11:39:58.540Z</time>
      </trkpt>
      <trkpt lat="51.533405" lon="10.117851">
        <ele>183.680387</ele>
        <time>2026-08-20T11:40:28.544Z</time>
      </trkpt>
      <trkpt lat="51.533740" lon="10.119590">
        <ele>182.791639</ele>
        <time>2026-08-20T11:42:24.981Z</time>
      </trkpt>
      <trkpt lat="51.533783" lon="10.119928">
        <ele>182.560831</ele>
        <time>2026-08-20T11:42:47.114Z</time>
      </trkpt>
      <trkpt lat="51.533767" lon="10.120276">
        <ele>182.327378</ele>
        <time>2026-08-20T11:43:09.416Z</time>
      </trkpt>
      <trkpt lat="51.533572" lon="10.121498">
        <ele>181.483367</ele>
        <time>2026-08-20T11:44:29.670Z</time>
      </trkpt>
      <trkpt lat="51.533390" lon="10.122315">
        <ele>181.231810</ele>
        <time>2026-08-20T11:45:24.304Z</time>
      </trkpt>
      <trkpt lat="51.533243" lon="10.122854">
        <ele>181.168625</ele>
        <time>2026-08-20T11:46:01.120Z</time>
      </trkpt>
      <trkpt lat="51.533161" lon="10.123456">
        <ele>181.102461</ele>
        <time>2026-08-20T11:46:39.531Z</time>
      </trkpt>
      <trkpt lat="51.533114" lon="10.124135">
        <ele>181.029112</ele>
        <time>2026-08-20T11:47:22.167Z</time>
      </trkpt>
      <trkpt lat="51.533104" lon="10.125162">
        <ele>181.131398</ele>
        <time>2026-08-20T11:48:26.356Z</time>
      </trkpt>
      <trkpt lat="51.533207" lon="10.126762">
        <ele>181.519686</ele>
        <time>2026-08-20T11:50:08.426Z</time>
      </trkpt>
      <trkpt lat="51.533068" lon="10.127880">
        <ele>181.983620</ele>
        <time>2026-08-20T11:51:20.821Z</time>
      </trkpt>
      <trkpt lat="51.533004" lon="10.129149">
        <ele>182.805765</ele>
        <time>2026-08-20T11:52:40.076Z</time>
      </trkpt>
      <trkpt lat="51.533033" lon="10.129353">
        <ele>182.940894</ele>
        <time>2026-08-20T11:52:53.529Z</time>
      </trkpt>
      <trkpt lat="51.533168" lon="10.129721">
        <ele>183.216774</ele>
        <time>2026-08-20T11:53:21.187Z</time>
      </trkpt>
      <trkpt lat="51.533296" lon="10.129761">
        <ele>183.352135</ele>
        <time>2026-08-20T11:53:35.111Z</time>
      </trkpt>
      <trkpt lat="51.533291" lon="10.130026">
        <ele>183.523337</ele>
        <time>2026-08-20T11:53:52.909Z</time>
      </trkpt>
      <trkpt lat="51.533235" lon="10.130097">
        <ele>183.855159</ele>
        <time>2026-08-20T11:54:00.812Z</time>
      </trkpt>
      <trkpt lat="51.532658" lon="10.130165">
        <ele>187.680673</ele>
        <time>2026-08-20T11:55:06.723Z</time>
      </trkpt>
      <trkpt lat="51.532297" lon="10.130146">
        <ele>190.068979</ele>
        <time>2026-08-20T11:55:51.099Z</time>
      </trkpt>
      <trkpt lat="51.531604" lon="10.129848">
        <ele>194.812393</ele>
        <time>2026-08-20T11:57:25.125Z</time>
      </trkpt>
      <trkpt lat="51.531154" lon="10.129894">
        <ele>199.432413</ele>
        <time>2026-08-20T11:58:24.545Z</time>
      </trkpt>
      <trkpt lat="51.530556" lon="10.129869">
        <ele>206.144051</ele>
        <time>2026-08-20T11:59:45.136Z</time>
      </trkpt>
      <trkpt lat="51.530423" lon="10.129574">
        <ele>208.686941</ele>
        <time>2026-08-20T12:00:16.548Z</time>
      </trkpt>
      <trkpt lat="51.530059" lon="10.129011">
        <ele>214.354448</ele>
        <time>2026-08-20T12:01:29.359Z</time>
      </trkpt>
      <trkpt lat="51.529221" lon="10.127121">
        <ele>234.860065</ele>
        <time>2026-08-20T12:05:21.105Z</time>
      </trkpt>
      <trkpt lat="51.528576" lon="10.126287">
        <ele>245.984097</ele>
        <time>2026-08-20T12:07:40.856Z</time>
      </trkpt>
      <trkpt lat="51.527938" lon="10.126031">
        <ele>253.951711</ele>
        <time>2026-08-20T12:09:24.212Z</time>
      </trkpt>
      <trkpt lat="51.527466" lon="10.125465">
        <ele>261.086927</ele>
        <time>2026-08-20T12:10:44.028Z</time>
      </trkpt>
      <trkpt lat="51.526936" lon="10.125125">
        <ele>264.985019</ele>
        <time>2026-08-20T12:11:55.119Z</time>
      </trkpt>
      <trkpt lat="51.526897" lon="10.125468">
        <ele>265.884434</ele>
        <time>2026-08-20T12:12:20.711Z</time>
      </trkpt>
      <trkpt lat="51.526768" lon="10.125947">
        <ele>267.230799</ele>
        <time>2026-08-20T12:12:57.779Z</time>
      </trkpt>
      <trkpt lat="51.526560" lon="10.126937">
        <ele>269.926180</ele>
        <time>2026-08-20T12:14:07.846Z</time>
      </trkpt>
      <trkpt lat="51.526496" lon="10.127707">
        <ele>271.329840</ele>
        <time>2026-08-20T12:14:58.610Z</time>
      </trkpt>
      <trkpt lat="51.526450" lon="10.128707">
        <ele>272.447222</ele>
        <time>2026-08-20T12:16:04.137Z</time>
      </trkpt>
      <trkpt lat="51.526172" lon="10.130186">
        <ele>274.151356</ele>
        <time>2026-08-20T12:17:47.468Z</time>
      </trkpt>
      <trkpt lat="51.525804" lon="10.130568">
        <ele>274.749857</ele>
        <time>2026-08-20T12:18:34.794Z</time>
      </trkpt>
      <trkpt lat="51.525109" lon="10.127550">
        <ele>276.231918</ele>
        <time>2026-08-20T12:22:02.801Z</time>
      </trkpt>
      <trkpt lat="51.524498" lon="10.125034">
        <ele>274.197630</ele>
        <time>2026-08-20T12:24:55.846Z</time>
      </trkpt>
      <trkpt lat="51.524176" lon="10.123729">
        <ele>271.860487</ele>
        <time>2026-08-20T12:26:29.364Z</time>
      </trkpt>
      <trkpt lat="51.523615" lon="10.121271">
        <ele>268.282107</ele>
        <time>2026-08-20T12:29:22.858Z</time>
      </trkpt>
      <trkpt lat="51.523507" lon="10.120920">
        <ele>267.780080</ele>
        <time>2026-08-20T12:29:47.441Z</time>
      </trkpt>
      <trkpt lat="51.523299" lon="10.120501">
        <ele>267.198331</ele>
        <time>2026-08-20T12:30:21.218Z</time>
      </trkpt>
      <trkpt lat="51.522570" lon="10.119470">
        <ele>267.375597</ele>
        <time>2026-08-20T12:32:01.554Z</time>
      </trkpt>
      <trkpt lat="51.522514" lon="10.119391">
        <ele>267.389200</ele>
        <time>2026-08-20T12:32:09.093Z</time>
      </trkpt>
      <trkpt lat="51.522405" lon="10.119311">
        <ele>267.411074</ele>
        <time>2026-08-20T12:32:21.173Z</time>
      </trkpt>
      <trkpt lat="51.522227" lon="10.119294">
        <ele>267.443625</ele>
        <time>2026-08-20T12:32:39.108Z</time>
      </trkpt>
      <trkpt lat="51.521530" lon="10.119630">
        <ele>267.210019</ele>
        <time>2026-08-20T12:33:52.832Z</time>
      </trkpt>
      <trkpt lat="51.518460" lon="10.120467">
        <ele>263.579196</ele>
        <time>2026-08-20T12:39:11.606Z</time>
      </trkpt>
      <trkpt lat="51.518273" lon="10.120558">
        <ele>263.304543</ele>
        <time>2026-08-20T12:39:32.216Z</time>
      </trkpt>
      <trkpt lat="51.518160" lon="10.120772">
        <ele>263.008209</ele>
        <time>2026-08-20T12:39:50.734Z</time>
      </trkpt>
      <trkpt lat="51.517591" lon="10.122483">
        <ele>260.959872</ele>
        <time>2026-08-20T12:41:57.540Z</time>
      </trkpt>
      <trkpt lat="51.517551" lon="10.122656">
        <ele>260.765009</ele>
        <time>2026-08-20T12:42:09.156Z</time>
      </trkpt>
      <trkpt lat="51.517559" lon="10.122882">
        <ele>260.526002</ele>
        <time>2026-08-20T12:42:23.297Z</time>
      </trkpt>
      <trkpt lat="51.517757" lon="10.124261">
        <ele>259.594045</ele>
        <time>2026-08-20T12:43:52.369Z</time>
      </trkpt>
      <trkpt lat="51.517723" lon="10.124572">
        <ele>259.407709</ele>
        <time>2026-08-20T12:44:12.237Z</time>
      </trkpt>
      <trkpt lat="51.517542" lon="10.124996">
        <ele>259.104285</ele>
        <time>2026-08-20T12:44:44.503Z</time>
      </trkpt>
      <trkpt lat="51.517257" lon="10.125541">
        <ele>258.684188</ele>
        <time>2026-08-20T12:45:30.565Z</time>
      </trkpt>
      <trkpt lat="51.516611" lon="10.126043">
        <ele>256.166633</ele>
        <time>2026-08-20T12:46:47.968Z</time>
      </trkpt>
      <trkpt lat="51.516575" lon="10.126145">
        <ele>255.884539</ele>
        <time>2026-08-20T12:46:55.990Z</time>
      </trkpt>
      <trkpt lat="51.516584" lon="10.126389">
        <ele>255.296532</ele>
        <time>2026-08-20T12:47:12.714Z</time>
      </trkpt>
      <trkpt lat="51.516151" lon="10.128741">
        <ele>251.462004</ele>
        <time>2026-08-20T12:49:58.637Z</time>
      </trkpt>
      <trkpt lat="51.516143" lon="10.128924">
        <ele>251.425618</ele>
        <time>2026-08-20T12:50:10.490Z</time>
      </trkpt>
      <trkpt lat="51.516450" lon="10.130773">
        <ele>251.447927</ele>
        <time>2026-08-20T12:52:16.117Z</time>
      </trkpt>
      <trkpt lat="51.516696" lon="10.132060">
        <ele>254.971107</ele>
        <time>2026-08-20T12:53:52.584Z</time>
      </trkpt>
      <trkpt lat="51.516727" lon="10.132174">
        <ele>255.296667</ele>
        <time>2026-08-20T12:54:01.672Z</time>
      </trkpt>
      <trkpt lat="51.516757" lon="10.132204">
        <ele>255.445255</ele>
        <time>2026-08-20T12:54:05.878Z</time>
      </trkpt>
      <trkpt lat="51.516768" lon="10.132741">
        <ele>256.851258</ele>
        <time>2026-08-20T12:54:45.542Z</time>
      </trkpt>
      <trkpt lat="51.516723" lon="10.133247">
        <ele>258.188833</ele>
        <time>2026-08-20T12:55:22.936Z</time>
      </trkpt>
      <trkpt lat="51.516830" lon="10.133642">
        <ele>259.347934</ele>
        <time>2026-08-20T12:55:54.016Z</time>
      </trkpt>
      <trkpt lat="51.517067" lon="10.133562">
        <ele>260.414014</ele>
        <time>2026-08-20T12:56:21.898Z</time>
      </trkpt>
      <trkpt lat="51.517389" lon="10.133615">
        <ele>261.838926</ele>
        <time>2026-08-20T12:56:58.953Z</time>
      </trkpt>
      <trkpt lat="51.517487" lon="10.133543">
        <ele>262.313285</ele>
        <time>2026-08-20T12:57:11.351Z</time>
      </trkpt>
      <trkpt lat="51.517604" lon="10.133400">
        <ele>262.960379</ele>
        <time>2026-08-20T12:57:28.328Z</time>
      </trkpt>
      <trkpt lat="51.517716" lon="10.133347">
        <ele>263.474353</ele>
        <time>2026-08-20T12:57:41.822Z</time>
      </trkpt>
      <trkpt lat="51.518969" lon="10.133232">
        <ele>268.764308</ele>
        <time>2026-08-20T13:00:06.533Z</time>
      </trkpt>
      <trkpt lat="51.519920" lon="10.133097">
        <ele>272.562942</ele>
        <time>2026-08-20T13:01:55.250Z</time>
      </trkpt>
      <trkpt lat="51.520821" lon="10.132911">
        <ele>275.324003</ele>
        <time>2026-08-20T13:03:36.956Z</time>
      </trkpt>
      <trkpt lat="51.521113" lon="10.132916">
        <ele>276.083641</ele>
        <time>2026-08-20T13:04:09.204Z</time>
      </trkpt>
      <trkpt lat="51.521146" lon="10.132887">
        <ele>276.181481</ele>
        <time>2026-08-20T13:04:13.249Z</time>
      </trkpt>
      <trkpt lat="51.521786" lon="10.133138">
        <ele>277.895199</ele>
        <time>2026-08-20T13:05:24.647Z</time>
      </trkpt>
      <trkpt lat="51.522118" lon="10.133332">
        <ele>278.262601</ele>
        <time>2026-08-20T13:06:02.010Z</time>
      </trkpt>
      <trkpt lat="51.522466" lon="10.133684">
        <ele>277.936712</ele>
        <time>2026-08-20T13:06:44.373Z</time>
      </trkpt>
      <trkpt lat="51.523289" lon="10.134770">
        <ele>277.092751</ele>
        <time>2026-08-20T13:08:34.115Z</time>
      </trkpt>
      <trkpt lat="51.523454" lon="10.134995">
        <ele>276.713002</ele>
        <time>2026-08-20T13:08:57.080Z</time>
      </trkpt>
      <trkpt lat="51.523120" lon="10.135166">
        <ele>275.138507</ele>
        <time>2026-08-20T13:09:34.561Z</time>
      </trkpt>
      <trkpt lat="51.523059" lon="10.135406">
        <ele>274.413971</ele>
        <time>2026-08-20T13:09:51.936Z</time>
      </trkpt>
      <trkpt lat="51.523135" lon="10.136437">
        <ele>271.512471</ele>
        <time>2026-08-20T13:11:02.239Z</time>
      </trkpt>
      <trkpt lat="51.523377" lon="10.137577">
        <ele>267.710370</ele>
        <time>2026-08-20T13:12:26.087Z</time>
      </trkpt>
      <trkpt lat="51.523508" lon="10.139178">
        <ele>260.542548</ele>
        <time>2026-08-20T13:14:21.638Z</time>
      </trkpt>
      <trkpt lat="51.523458" lon="10.139370">
        <ele>259.618646</ele>
        <time>2026-08-20T13:14:36.687Z</time>
      </trkpt>
      <trkpt lat="51.523337" lon="10.139588">
        <ele>258.321889</ele>
        <time>2026-08-20T13:14:57.762Z</time>
      </trkpt>
      <trkpt lat="51.523172" lon="10.140068">
        <ele>255.902410</ele>
        <time>2026-08-20T13:15:37.160Z</time>
      </trkpt>
      <trkpt lat="51.522248" lon="10.142029">
        <ele>245.944789</ele>
        <time>2026-08-20T13:18:30.275Z</time>
      </trkpt>
      <trkpt lat="51.522092" lon="10.142531">
        <ele>243.662277</ele>
        <time>2026-08-20T13:19:09.273Z</time>
      </trkpt>
      <trkpt lat="51.522026" lon="10.142849">
        <ele>242.283271</ele>
        <time>2026-08-20T13:19:32.579Z</time>
      </trkpt>
      <trkpt lat="51.522017" lon="10.143408">
        <ele>239.982954</ele>
        <time>2026-08-20T13:20:11.645Z</time>
      </trkpt>
      <trkpt lat="51.521980" lon="10.143977">
        <ele>237.629521</ele>
        <time>2026-08-20T13:20:51.734Z</time>
      </trkpt>
      <trkpt lat="51.521984" lon="10.144739">
        <ele>234.494782</ele>
        <time>2026-08-20T13:21:45.697Z</time>
      </trkpt>
      <trkpt lat="51.522028" lon="10.145945">
        <ele>228.961689</ele>
        <time>2026-08-20T13:23:12.426Z</time>
      </trkpt>
      <trkpt lat="51.522141" lon="10.146755">
        <ele>224.891624</ele>
        <time>2026-08-20T13:24:12.685Z</time>
      </trkpt>
      <trkpt lat="51.522679" lon="10.148760">
        <ele>214.462889</ele>
        <time>2026-08-20T13:26:50.191Z</time>
      </trkpt>
      <trkpt lat="51.522723" lon="10.149162">
        <ele>212.596746</ele>
        <time>2026-08-20T13:27:19.103Z</time>
      </trkpt>
      <trkpt lat="51.522687" lon="10.149604">
        <ele>210.558706</ele>
        <time>2026-08-20T13:27:50.595Z</time>
      </trkpt>
      <trkpt lat="51.522577" lon="10.150193">
        <ele>207.747138</ele>
        <time>2026-08-20T13:28:34.221Z</time>
      </trkpt>
      <trkpt lat="51.522395" lon="10.150763">
        <ele>204.849505</ele>
        <time>2026-08-20T13:29:19.924Z</time>
      </trkpt>
      <trkpt lat="51.522201" lon="10.151245">
        <ele>202.550567</ele>
        <time>2026-08-20T13:30:01.111Z</time>
      </trkpt>
      <trkpt lat="51.522129" lon="10.151619">
        <ele>200.982737</ele>
        <time>2026-08-20T13:30:29.365Z</time>
      </trkpt>
      <trkpt lat="51.522134" lon="10.151996">
        <ele>199.472601</ele>
        <time>2026-08-20T13:30:56.497Z</time>
      </trkpt>
      <trkpt lat="51.522273" lon="10.152874">
        <ele>195.844400</ele>
        <time>2026-08-20T13:32:00.508Z</time>
      </trkpt>
      <trkpt lat="51.522467" lon="10.153499">
        <ele>193.377809</ele>
        <time>2026-08-20T13:32:48.271Z</time>
      </trkpt>
      <trkpt lat="51.522600" lon="10.153755">
        <ele>193.027678</ele>
        <time>2026-08-20T13:33:10.499Z</time>
      </trkpt>
      <trkpt lat="51.522689" lon="10.153866">
        <ele>192.837597</ele>
        <time>2026-08-20T13:33:22.446Z</time>
      </trkpt>
      <trkpt lat="51.523300" lon="10.154362">
        <ele>191.682620</ele>
        <time>2026-08-20T13:34:32.848Z</time>
      </trkpt>
      <trkpt lat="51.524692" lon="10.155145">
        <ele>190.164566</ele>
        <time>2026-08-20T13:37:01.176Z</time>
      </trkpt>
      <trkpt lat="51.525512" lon="10.155394">
        <ele>189.835575</ele>
        <time>2026-08-20T13:38:25.428Z</time>
      </trkpt>
      <trkpt lat="51.525795" lon="10.155553">
        <ele>189.680481</ele>
        <time>2026-08-20T13:38:55.718Z</time>
      </trkpt>
      <trkpt lat="51.527237" lon="10.157141">
        <ele>188.202222</ele>
        <time>2026-08-20T13:41:53.790Z</time>
      </trkpt>
      <trkpt lat="51.527424" lon="10.157307">
        <ele>187.786782</ele>
        <time>2026-08-20T13:42:15.504Z</time>
      </trkpt>
      <trkpt lat="51.527989" lon="10.157700">
        <ele>186.589540</ele>
        <time>2026-08-20T13:43:18.806Z</time>
      </trkpt>
      <trkpt lat="51.528436" lon="10.157753">
        <ele>185.717883</ele>
        <time>2026-08-20T13:44:06.003Z</time>
      </trkpt>
      <trkpt lat="51.528657" lon="10.157812">
        <ele>185.282209</ele>
        <time>2026-08-20T13:44:29.678Z</time>
      </trkpt>
      <trkpt lat="51.529070" lon="10.158847">
        <ele>183.814793</ele>
        <time>2026-08-20T13:45:50.751Z</time>
      </trkpt>
      <trkpt lat="51.529177" lon="10.159018">
        <ele>183.527429</ele>
        <time>2026-08-20T13:46:06.935Z</time>
      </trkpt>
      <trkpt lat="51.529346" lon="10.159172">
        <ele>183.157441</ele>
        <time>2026-08-20T13:46:27.809Z</time>
      </trkpt>
      <trkpt lat="51.529778" lon="10.159381">
        <ele>182.298228</ele>
        <time>2026-08-20T13:47:15.463Z</time>
      </trkpt>
      <trkpt lat="51.530352" lon="10.159606">
        <ele>181.628528</ele>
        <time>2026-08-20T13:48:15.143Z</time>
      </trkpt>
      <trkpt lat="51.530354" lon="10.159359">
        <ele>182.099105</ele>
        <time>2026-08-20T13:48:30.755Z</time>
      </trkpt>
      <trkpt lat="51.530664" lon="10.156616">
        <ele>188.185202</ele>
        <time>2026-08-20T13:51:45.637Z</time>
      </trkpt>
      <trkpt lat="51.530425" lon="10.153056">
        <ele>204.129995</ele>
        <time>2026-08-20T13:56:30.644Z</time>
      </trkpt>
      <trkpt lat="51.531408" lon="10.152554">
        <ele>211.008033</ele>
        <time>2026-08-20T13:58:38.584Z</time>
      </trkpt>
      <trkpt lat="51.531857" lon="10.152333">
        <ele>211.481234</ele>
        <time>2026-08-20T13:59:31.415Z</time>
      </trkpt>
      <trkpt lat="51.532214" lon="10.152097">
        <ele>210.769969</ele>
        <time>2026-08-20T14:00:10.606Z</time>
      </trkpt>
      <trkpt lat="51.532702" lon="10.151689">
        <ele>209.756428</ele>
        <time>2026-08-20T14:01:09.013Z</time>
      </trkpt>
      <trkpt lat="51.532628" lon="10.153462">
        <ele>205.768051</ele>
        <time>2026-08-20T14:03:14.341Z</time>
      </trkpt>
      <trkpt lat="51.532663" lon="10.153814">
        <ele>204.579932</ele>
        <time>2026-08-20T14:03:39.635Z</time>
      </trkpt>
      <trkpt lat="51.532770" lon="10.154136">
        <ele>203.363171</ele>
        <time>2026-08-20T14:04:05.407Z</time>
      </trkpt>
      <trkpt lat="51.534237" lon="10.156832">
        <ele>193.969266</ele>
        <time>2026-08-20T14:08:06.019Z</time>
      </trkpt>
      <trkpt lat="51.535271" lon="10.158766">
        <ele>189.216191</ele>
        <time>2026-08-20T14:10:53.228Z</time>
      </trkpt>
      <trkpt lat="51.536632" lon="10.161312">
        <ele>182.306267</ele>
        <time>2026-08-20T14:14:35.626Z</time>
      </trkpt>
      <trkpt lat="51.536691" lon="10.161425">
        <ele>181.985467</ele>
        <time>2026-08-20T14:14:45.505Z</time>
      </trkpt>
      <trkpt lat="51.537767" lon="10.160461">
        <ele>175.941091</ele>
        <time>2026-08-20T14:17:01.781Z</time>
      </trkpt>
      <trkpt lat="51.538054" lon="10.160085">
        <ele>174.025433</ele>
        <time>2026-08-20T14:17:43.497Z</time>
      </trkpt>
      <trkpt lat="51.538126" lon="10.160165">
        <ele>173.572567</ele>
        <time>2026-08-20T14:17:53.313Z</time>
      </trkpt>
      <trkpt lat="51.538466" lon="10.160166">
        <ele>171.908268</ele>
        <time>2026-08-20T14:18:31.156Z</time>
      </trkpt>
      <trkpt lat="51.538673" lon="10.160099">
        <ele>171.393860</ele>
        <time>2026-08-20T14:18:54.262Z</time>
      </trkpt>
      <trkpt lat="51.539196" lon="10.160317">
        <ele>170.077611</ele>
        <time>2026-08-20T14:19:52.370Z</time>
      </trkpt>
      <trkpt lat="51.539258" lon="10.160401">
        <ele>169.880090</ele>
        <time>2026-08-20T14:20:00.851Z</time>
      </trkpt>
      <trkpt lat="51.539345" lon="10.160332">
        <ele>169.643757</ele>
        <time>2026-08-20T14:20:11.031Z</time>
      </trkpt>
      <trkpt lat="51.540003" lon="10.160260">
        <ele>168.037040</ele>
        <time>2026-08-20T14:21:18.344Z</time>
      </trkpt>
      <trkpt lat="51.539930" lon="10.159923">
        <ele>167.606263</ele>
        <time>2026-08-20T14:21:40.605Z</time>
      </trkpt>
      <trkpt lat="51.539746" lon="10.159184">
        <ele>167.556966</ele>
        <time>2026-08-20T14:22:30.451Z</time>
      </trkpt>
      <trkpt lat="51.539164" lon="10.157660">
        <ele>167.446213</ele>
        <time>2026-08-20T14:24:21.945Z</time>
      </trkpt>
      <trkpt lat="51.539069" lon="10.157332">
        <ele>167.441693</ele>
        <time>2026-08-20T14:24:44.523Z</time>
      </trkpt>
      <trkpt lat="51.539164" lon="10.157660">
        <ele>167.469072</ele>
        <time>2026-08-20T14:25:07.091Z</time>
      </trkpt>
      <trkpt lat="51.539746" lon="10.159184">
        <ele>167.604396</ele>
        <time>2026-08-20T14:26:58.933Z</time>
      </trkpt>
      <trkpt lat="51.539930" lon="10.159923">
        <ele>167.650681</ele>
        <time>2026-08-20T14:27:48.771Z</time>
      </trkpt>
      <trkpt lat="51.540003" lon="10.160260">
        <ele>167.650681</ele>
        <time>2026-08-20T14:28:11.107Z</time>
      </trkpt>
      <trkpt lat="51.540423" lon="10.162246">
        <ele>167.650681</ele>
        <time>2026-08-20T14:30:22.048Z</time>
      </trkpt>
      <trkpt lat="51.540530" lon="10.162380">
        <ele>167.650681</ele>
        <time>2026-08-20T14:30:35.683Z</time>
      </trkpt>
      <trkpt lat="51.540695" lon="10.162478">
        <ele>167.650681</ele>
        <time>2026-08-20T14:30:53.281Z</time>
      </trkpt>
      <trkpt lat="51.540717" lon="10.162415">
        <ele>167.650681</ele>
        <time>2026-08-20T14:30:57.820Z</time>
      </trkpt>
    </trkseg>
  </trk>
</gpx>